Mount Erie, IL (62446)

7:02 PM CDT on July 03, 2015 (GMT -0500)
Fairfield Municipal | | Change Station
CLOSE
Current Station
Airport
Location: Fairfield,
Elevation: 436 ft
Nearby Weather Stations
Active Advisory: Flood Warning

Elev 436 ft 38.38 °N, 88.41 °W | Updated 27 minutes ago

Scattered Clouds
Scattered Clouds
75 °F
Feels Like 75 °F
N
5
Wind Variable Wind from North

Today
High -- | Low -- °F
--% Chance of Precip.
Yesterday
High -- | Low -- °F
Precip. -- in
5:34 AM 8:21 PM
Waning Gibbous, 95% visible
Pressure 29.85 in
Visibility 10.0 miles
Clouds Scattered Clouds 11000 ft
Dew Point 68 °F
Humidity 78%
Rainfall 0.00 in
Snow Depth Not available.
UV 1 out of 12
Pollen 2.50 out of 12
Air Quality Not available.
Flu Activity Not available.
METAR KFWC 032335Z AUTO 01004KT 10SM SCT110 24/20 A2985 RMK AO1 LTG DSNT SE T02410201

More Conditions Fewer Conditions

Pressure 29.85 in
Visibility 10.0 miles
Clouds Scattered Clouds 11000 ft
Dew Point 68 °F
Humidity 78%
Rainfall 0.00 in
Snow Depth Not available.
UV 1 out of 12
Pollen 2.50 out of 12
Air Quality Not available.
Flu Activity Not available.
METAR KFWC 032335Z AUTO 01004KT 10SM SCT110 24/20 A2985 RMK AO1 LTG DSNT SE T02410201

More Conditions Fewer Conditions

10-Day Weather Forecast

×

Almanac

Astronomy

Jul. 03, 2015 Rise Set
Actual Time
Civil Twilight
Nautical Twilight
Astronomical Twilight
Moon
Length of Visible Light
Length of Day
Tomorrow will be .
, % of the Moon is Illuminated

Today's Extremes

State Highs State Lows

Community

WunderPhotos

Upload Photos

1,834,831 photos uploaded!

WunderBlogs® & News

Nearby

Air Quality

  Air Quality AQ Index Pollutant
Not available.

Snow Depth

Station Depth Elevation

Earthquake Activity

City Distance Mag. Time & Date
Minimum magnitude displayed is 2.5.

Coastal Water Temperatures

Place Temperature

Stations

Nearby Weather Stations

Station Location Temp. Windchill Dew Point Humidity Wind Precip. Elev Updated Type
                   
Flood Warning
Statement as of 10:08 AM CDT on July 03, 2015

The Flood Warning continues for
the Little Wabash River at Carmi
* until further notice.
* At 9:30 am Friday the stage was 33.2 feet.
* Flood stage is 27.0 feet.
* Moderate flooding is occurring and moderate flooding is forecast.
* Forecast... the river will fall to 32.8 feet by Saturday morning.
* Impact... at 32.0 feet... flood waters flow up McHenry Slough and
areas near Route 1 and 14 in Carmi begin to flood.


Lat... Lon 3826 8816 3801 8828 3791 8812 3793 8808
      3804 8813 3825 8802